createdAt,value
2018-11-13T00:00:29.435Z,100189.73
2018-11-13T00:02:58.088Z,100196.36
2018-11-13T00:05:27.174Z,100194.62
2018-11-13T00:07:55.699Z,100203.36
2018-11-13T00:10:24.312Z,100189.78
2018-11-13T00:12:52.877Z,100195.05
2018-11-13T00:15:21.379Z,100192.84
2018-11-13T00:17:49.883Z,100195.95
2018-11-13T00:20:19.213Z,100195.97
2018-11-13T00:22:47.698Z,100207.81
2018-11-13T00:25:17.372Z,100196.86
2018-11-13T00:27:46.083Z,100197.77
2018-11-13T00:30:17.334Z,100197.34
2018-11-13T00:32:45.884Z,100190.34
2018-11-13T00:35:15.525Z,100182.87
2018-11-13T00:37:44.665Z,100181.12
2018-11-13T00:40:13.949Z,100181.98
2018-11-13T00:42:43.510Z,100182.87
2018-11-13T00:45:12.175Z,100179.35
2018-11-13T00:47:40.679Z,100178.92
2018-11-13T00:50:12.880Z,100168.83
2018-11-13T00:52:42.147Z,100154.83
2018-11-13T00:55:11.062Z,100164.95
2018-11-13T00:57:39.837Z,100154.91
2018-11-13T01:00:10.903Z,100143.14
2018-11-13T01:02:39.546Z,100134.88
2018-11-13T01:05:10.276Z,100134.94
2018-11-13T01:07:38.833Z,100133.69
2018-11-13T01:10:08.667Z,100128.45
2018-11-13T01:12:37.247Z,100132.93
2018-11-13T01:15:06.427Z,100143.98
2018-11-13T01:17:34.992Z,100143.14
2018-11-13T01:20:03.672Z,100155.94
2018-11-13T01:22:32.331Z,100155.93
2018-11-13T01:25:00.908Z,100163.36
2018-11-13T01:27:29.559Z,100169.45
2018-11-13T01:29:59.002Z,100172.48
2018-11-13T01:32:28.947Z,100183.37
2018-11-13T01:34:57.656Z,100181.59
2018-11-13T01:37:26.455Z,100194.73
2018-11-13T01:39:55.468Z,100211.34
2018-11-13T01:42:24.872Z,100210.44
2018-11-13T01:44:53.478Z,100217.39
2018-11-13T01:47:22.101Z,100214.75
2018-11-13T01:49:50.706Z,100221.32
2018-11-13T01:52:19.604Z,100214.28
2018-11-13T01:54:48.237Z,100202.45
2018-11-13T01:57:16.941Z,100189.71
2018-11-13T01:59:45.647Z,100190.65
2018-11-13T02:02:14.478Z,100198.96
2018-11-13T02:04:43.267Z,100213.01
2018-11-13T02:07:11.942Z,100207.30
2018-11-13T02:09:40.629Z,100206.45
2018-11-13T02:12:09.285Z,100210.40
2018-11-13T02:14:37.929Z,100215.66
2018-11-13T02:17:07.409Z,100219.19
2018-11-13T02:19:36.106Z,100212.61
2018-11-13T02:22:04.824Z,100210.39
2018-11-13T02:24:33.421Z,100212.55
2018-11-13T02:27:02.060Z,100217.81
2018-11-13T02:29:30.698Z,100222.28
2018-11-13T02:31:59.399Z,100205.62
2018-11-13T02:34:28.252Z,100190.79
2018-11-13T02:36:57.008Z,100201.35
2018-11-13T02:39:25.727Z,100189.59
2018-11-13T02:41:54.444Z,100201.47
2018-11-13T02:44:23.130Z,100190.05
2018-11-13T02:46:51.879Z,100181.70
2018-11-13T02:49:20.465Z,100190.01
2018-11-13T02:51:49.165Z,100187.37
2018-11-13T02:54:17.821Z,100182.11
2018-11-13T02:56:46.588Z,99915.56
2018-11-13T02:59:15.340Z,100179.85
2018-11-13T03:01:44.011Z,100185.53
2018-11-13T03:04:12.806Z,100190.31
2018-11-13T03:06:41.593Z,100192.09
2018-11-13T03:09:10.421Z,100187.73
2018-11-13T03:11:39.246Z,100198.68
2018-11-13T03:14:08.041Z,100196.09
2018-11-13T03:16:36.714Z,100213.19
2018-11-13T03:19:05.783Z,100216.25
2018-11-13T03:21:34.536Z,100221.57
2018-11-13T03:24:03.387Z,100229.88
2018-11-13T03:26:32.220Z,100232.08
2018-11-13T03:29:00.917Z,100226.40
2018-11-13T03:31:29.928Z,100223.30
2018-11-13T03:33:58.530Z,100219.41
2018-11-13T03:36:27.209Z,100226.51
2018-11-13T03:38:55.910Z,100231.34
2018-11-13T03:41:24.868Z,100241.91
2018-11-13T03:43:53.729Z,100241.97
2018-11-13T03:46:22.458Z,100231.88
2018-11-13T03:48:51.092Z,100245.06
2018-11-13T03:51:19.728Z,100240.70
2018-11-13T03:53:48.408Z,100240.70
2018-11-13T03:56:17.083Z,100239.39
2018-11-13T03:58:45.720Z,100238.92
2018-11-13T04:01:14.699Z,100233.70
2018-11-13T04:03:43.471Z,100229.77
2018-11-13T04:06:12.131Z,100232.82
2018-11-13T04:08:40.750Z,100232.82
2018-11-13T04:11:09.591Z,100244.64
2018-11-13T04:13:38.260Z,100248.54
2018-11-13T04:16:06.793Z,100260.80
2018-11-13T04:18:35.589Z,100272.19
2018-11-13T04:21:04.956Z,100267.32
2018-11-13T04:23:35.762Z,100262.95
2018-11-13T04:26:04.456Z,100262.48
2018-11-13T04:28:33.280Z,100232.66
2018-11-13T04:31:01.980Z,100232.19
2018-11-13T04:33:30.895Z,100239.19
2018-11-13T04:35:59.677Z,100239.65
2018-11-13T04:38:28.415Z,100236.08
2018-11-13T04:40:57.050Z,100233.44
2018-11-13T04:43:25.722Z,100241.72
2018-11-13T04:45:54.476Z,100253.07
2018-11-13T04:48:23.328Z,100255.69
2018-11-13T04:50:52.064Z,100266.16
2018-11-13T04:53:20.932Z,100274.11
2018-11-13T04:55:49.781Z,100275.05
2018-11-13T04:58:18.519Z,100278.52
2018-11-13T05:00:47.252Z,100274.57
2018-11-13T05:03:15.924Z,100289.50
2018-11-13T05:05:44.614Z,100283.88
2018-11-13T05:08:13.339Z,100269.42
2018-11-13T05:10:42.155Z,100268.10
2018-11-13T05:13:10.886Z,100259.80
2018-11-13T05:15:39.650Z,100267.73
2018-11-13T05:18:08.326Z,100266.47
2018-11-13T05:20:37.046Z,100272.66
2018-11-13T05:23:05.939Z,100292.38
2018-11-13T05:25:34.547Z,100287.97
2018-11-13T05:28:03.201Z,100288.86
2018-11-13T05:30:31.844Z,100281.39
2018-11-13T05:33:00.531Z,100280.89
2018-11-13T05:35:29.173Z,100315.95
2018-11-13T05:37:57.806Z,100315.91
2018-11-13T05:40:26.512Z,100314.17
2018-11-13T05:42:55.514Z,100303.18
2018-11-13T05:45:25.475Z,100302.34
2018-11-13T05:47:54.192Z,100305.02
2018-11-13T05:50:23.632Z,100307.22
2018-11-13T05:52:53.543Z,100307.22
2018-11-13T05:55:22.400Z,100306.42
2018-11-13T05:57:51.449Z,100310.78
2018-11-13T06:00:25.156Z,100329.19
2018-11-13T06:02:53.895Z,100325.67
2018-11-13T06:05:22.790Z,100331.86
2018-11-13T06:07:51.574Z,100332.75
2018-11-13T06:10:20.323Z,100338.05
2018-11-13T06:12:49.138Z,100342.02
2018-11-13T06:15:18.101Z,100347.70
2018-11-13T06:17:46.916Z,100335.45
2018-11-13T06:20:17.094Z,100338.97
2018-11-13T06:22:46.091Z,100332.41
2018-11-13T06:25:16.063Z,100310.26
2018-11-13T06:27:45.808Z,100346.01
2018-11-13T06:30:18.207Z,100351.30
2018-11-13T06:32:47.478Z,100355.67
2018-11-13T06:35:21.472Z,100359.61
2018-11-13T06:37:50.042Z,100361.34
2018-11-13T06:40:19.184Z,100353.89
2018-11-13T06:42:47.743Z,100355.67
2018-11-13T06:45:17.777Z,100369.69
2018-11-13T06:47:47.120Z,100363.13
2018-11-13T06:50:15.773Z,100371.01
2018-11-13T06:52:45.122Z,100380.23
2018-11-13T06:55:19.642Z,100387.23
2018-11-13T06:57:48.374Z,100392.06
2018-11-13T07:00:17.169Z,100407.40
2018-11-13T07:02:45.893Z,100405.23
2018-11-13T07:05:16.211Z,100407.43
2018-11-13T07:07:45.456Z,100411.38
2018-11-13T07:10:17.122Z,100414.03
2018-11-13T07:12:46.922Z,100407.42
2018-11-13T07:15:22.679Z,100410.94
2018-11-13T07:17:52.783Z,100419.71
2018-11-13T07:20:24.403Z,100423.23
2018-11-13T07:22:53.031Z,100427.14
2018-11-13T07:25:21.980Z,100430.63
2018-11-13T07:27:50.586Z,100429.70
2018-11-13T07:30:19.940Z,100435.81
2018-11-13T07:32:48.442Z,100436.20
2018-11-13T07:35:18.021Z,100442.72
2018-11-13T07:37:48.098Z,100450.53
2018-11-13T07:40:16.648Z,100442.16
2018-11-13T07:42:45.205Z,100453.05
2018-11-13T07:45:14.771Z,100457.27
2018-11-13T07:47:44.376Z,100460.75
2018-11-13T07:50:13.568Z,100471.14
2018-11-13T07:52:42.137Z,100469.33
2018-11-13T07:55:11.666Z,100468.43
2018-11-13T07:57:40.202Z,100471.02
2018-11-13T08:00:11.884Z,100466.13
2018-11-13T08:02:40.995Z,100464.34
2018-11-13T08:05:09.584Z,100474.38
2018-11-13T08:07:38.102Z,100489.20
2018-11-13T08:10:07.454Z,100475.97
2018-11-13T08:12:35.919Z,100486.05
2018-11-13T08:15:04.566Z,100487.35
2018-11-13T08:17:33.035Z,100493.03
2018-11-13T08:20:01.557Z,100537.77
2018-11-13T08:22:30.127Z,100492.57
2018-11-13T08:24:58.608Z,100495.16
2018-11-13T08:27:27.023Z,100499.10
2018-11-13T08:29:55.499Z,100495.94
2018-11-13T08:32:24.144Z,100494.09
2018-11-13T08:34:52.749Z,100491.30
2018-11-13T08:37:21.351Z,100488.13
2018-11-13T08:39:49.795Z,100487.63
2018-11-13T08:42:18.230Z,100492.91
2018-11-13T08:44:47.059Z,100488.59
2018-11-13T08:47:15.618Z,100499.14
2018-11-13T08:49:44.283Z,100488.77
2018-11-13T08:52:12.721Z,100503.34
2018-11-13T08:54:41.223Z,100505.35
2018-11-13T08:57:09.684Z,100495.77
2018-11-13T08:59:38.248Z,100520.19
2018-11-13T09:02:07.059Z,100504.97
2018-11-13T09:04:35.647Z,100505.37
2018-11-13T09:07:04.264Z,100512.22
2018-11-13T09:09:32.881Z,100510.25
2018-11-13T09:12:01.638Z,100515.88
2018-11-13T09:14:30.188Z,100526.97
2018-11-13T09:16:58.712Z,100526.14
2018-11-13T09:19:27.610Z,100517.33
2018-11-13T09:21:56.054Z,100528.32
2018-11-13T09:24:24.498Z,100521.06
2018-11-13T09:26:52.991Z,100519.94
2018-11-13T09:29:21.440Z,100531.33
2018-11-13T09:31:50.012Z,100534.59
2018-11-13T09:34:18.583Z,100540.73
2018-11-13T09:36:47.091Z,100532.88
2018-11-13T09:39:15.706Z,100547.12
2018-11-13T09:41:44.306Z,100541.38
2018-11-13T09:44:12.913Z,100551.50
2018-11-13T09:46:41.528Z,100549.02
2018-11-13T09:49:10.117Z,100546.09
2018-11-13T09:51:38.722Z,100545.36
2018-11-13T09:54:07.227Z,100551.35
2018-11-13T09:56:35.883Z,100544.45
2018-11-13T09:59:04.369Z,100553.90
2018-11-13T10:01:33.244Z,100563.64
2018-11-13T10:04:02.049Z,100548.20
2018-11-13T10:06:29.959Z,100553.41
2018-11-13T10:08:58.432Z,100555.27
2018-11-13T10:11:26.993Z,100556.77
2018-11-13T10:13:55.524Z,100556.16
2018-11-13T10:16:24.189Z,100559.80
2018-11-13T10:18:52.599Z,100559.42
2018-11-13T10:21:21.189Z,100564.39
2018-11-13T10:23:49.792Z,100566.80
2018-11-13T10:26:18.390Z,100589.64
2018-11-13T10:28:46.831Z,100582.73
2018-11-13T10:31:15.472Z,100583.74
2018-11-13T10:33:44.046Z,100580.82
2018-11-13T10:36:12.667Z,100573.92
2018-11-13T10:38:41.264Z,100575.83
2018-11-13T10:41:09.981Z,100577.77
2018-11-13T10:43:38.561Z,100580.13
2018-11-13T10:46:07.173Z,100573.70
2018-11-13T10:48:35.781Z,100562.80
2018-11-13T10:51:04.349Z,100574.06
2018-11-13T10:53:32.993Z,100558.38
2018-11-13T10:56:01.635Z,100562.39
2018-11-13T10:58:30.222Z,100560.32
2018-11-13T11:01:00.203Z,100557.54
2018-11-13T11:03:34.164Z,100554.66
2018-11-13T11:06:02.870Z,100558.75
2018-11-13T11:08:31.861Z,100567.27
2018-11-13T11:11:00.484Z,100581.83
2018-11-13T11:13:29.311Z,100581.37
2018-11-13T11:15:57.798Z,100575.45
2018-11-13T11:18:26.519Z,100566.75
2018-11-13T11:20:55.169Z,100572.52
2018-11-13T11:23:23.806Z,100567.80
2018-11-13T11:25:52.467Z,100590.92
2018-11-13T11:28:20.996Z,100571.08
2018-11-13T11:30:49.512Z,100577.22
2018-11-13T11:33:18.163Z,100582.86
2018-11-13T11:35:47.706Z,100576.41
2018-11-13T11:38:16.179Z,100581.70
2018-11-13T11:40:45.674Z,100588.42
2018-11-13T11:43:14.188Z,100584.83
2018-11-13T11:45:42.884Z,100578.19
2018-11-13T11:48:11.942Z,100589.16
2018-11-13T11:50:40.636Z,100598.06
2018-11-13T11:53:09.117Z,100605.30
2018-11-13T11:55:37.900Z,100606.41
2018-11-13T11:58:06.379Z,100607.35
2018-11-13T12:00:36.335Z,100607.31
2018-11-13T12:03:05.608Z,100609.54
2018-11-13T12:05:34.280Z,100617.51
2018-11-13T12:08:03.028Z,100618.43
2018-11-13T12:10:31.647Z,100626.89
2018-11-13T12:13:00.187Z,100615.99
2018-11-13T12:15:28.686Z,100617.02
2018-11-13T12:17:57.304Z,100617.16
2018-11-13T12:20:26.007Z,100631.27
2018-11-13T12:22:54.528Z,100638.80
2018-11-13T12:25:22.986Z,100632.34
2018-11-13T12:27:51.588Z,100638.47
2018-11-13T12:30:21.904Z,100638.95
2018-11-13T12:32:51.384Z,100637.28
2018-11-13T12:35:21.322Z,100642.62
2018-11-13T12:37:51.734Z,100642.63
2018-11-13T12:40:22.334Z,100640.27
2018-11-13T12:42:52.865Z,100645.16
2018-11-13T12:45:22.045Z,100651.47
2018-11-13T12:47:51.015Z,100651.77
2018-11-13T12:50:21.015Z,100661.28
2018-11-13T12:52:49.821Z,100656.80
2018-11-13T12:55:23.626Z,100662.08
2018-11-13T12:57:52.262Z,100660.25
2018-11-13T13:00:24.340Z,100661.23
2018-11-13T13:02:52.979Z,100661.97
2018-11-13T13:05:21.669Z,100667.13
2018-11-13T13:07:50.331Z,100665.86
2018-11-13T13:10:19.850Z,100672.14
2018-11-13T13:12:48.549Z,100674.98
2018-11-13T13:15:18.879Z,100676.88
2018-11-13T13:17:47.622Z,100674.75
2018-11-13T13:20:19.391Z,100685.88
2018-11-13T13:22:49.015Z,100690.44
2018-11-13T13:25:18.410Z,100679.11
2018-11-13T13:27:49.214Z,100700.84
2018-11-13T13:30:22.128Z,100688.14
2018-11-13T13:32:51.064Z,100693.55
2018-11-13T13:36:09.026Z,100694.48
2018-11-13T13:38:38.884Z,100694.72
2018-11-13T13:41:07.760Z,100696.52
2018-11-13T13:43:36.716Z,100706.24
2018-11-13T13:46:05.646Z,100705.82
2018-11-13T13:48:34.672Z,100702.72
2018-11-13T13:51:03.381Z,100711.54
2018-11-13T13:53:32.829Z,100714.66
2018-11-13T13:56:01.455Z,100717.39
2018-11-13T13:58:30.107Z,100723.14
2018-11-13T14:00:59.079Z,100729.42
2018-11-13T14:03:27.858Z,100730.75
2018-11-13T14:05:56.540Z,100728.60
2018-11-13T14:08:25.492Z,100735.60
2018-11-13T14:10:54.407Z,100736.80
2018-11-13T14:13:23.190Z,100743.31
2018-11-13T14:15:52.091Z,100745.13
2018-11-13T14:18:21.087Z,100760.14
2018-11-13T14:20:50.033Z,100750.20
2018-11-13T14:23:19.313Z,100755.08
2018-11-13T14:25:48.423Z,100753.81
2018-11-13T14:28:17.363Z,100761.72
2018-11-13T14:30:46.491Z,100763.95
2018-11-13T14:33:15.701Z,100761.36
2018-11-13T14:35:45.025Z,100768.02
2018-11-13T14:38:14.216Z,100776.44
2018-11-13T14:40:45.150Z,100776.12
2018-11-13T14:43:14.294Z,100786.26
2018-11-13T14:45:43.470Z,100786.69
2018-11-13T14:48:12.747Z,100794.70
2018-11-13T14:50:41.803Z,100796.08
2018-11-13T14:53:11.035Z,100804.53
2018-11-13T14:55:41.486Z,100816.02
2018-11-13T14:58:11.852Z,100808.58
2018-11-13T15:00:41.320Z,100810.80
2018-11-13T15:03:12.208Z,100811.27
2018-11-13T15:05:41.606Z,100819.19
2018-11-13T15:08:10.751Z,100820.08
2018-11-13T15:10:55.554Z,100824.46
2018-11-13T15:13:25.539Z,100828.84
2018-11-13T15:15:54.140Z,100837.66
2018-11-13T15:18:22.846Z,100848.20
2018-11-13T15:20:52.435Z,100849.98
2018-11-13T15:23:21.509Z,100857.05
2018-11-13T15:25:51.615Z,100854.46
2018-11-13T15:28:20.437Z,100860.27
2018-11-13T15:30:50.279Z,100856.76
2018-11-13T15:33:23.665Z,100867.80
2018-11-13T15:35:52.257Z,100868.70
2018-11-13T15:38:21.223Z,100871.37
2018-11-13T15:40:49.903Z,100876.25
2018-11-13T15:43:18.743Z,100879.80
2018-11-13T15:45:47.481Z,100880.70
2018-11-13T15:48:16.929Z,100886.39
2018-11-13T15:50:45.897Z,100887.74
2018-11-13T15:53:14.684Z,100889.95
2018-11-13T15:55:43.386Z,100894.36
2018-11-13T15:58:12.170Z,100897.95
2018-11-13T16:00:42.572Z,100907.19
2018-11-13T16:03:21.021Z,100906.81
2018-11-13T16:05:52.663Z,100910.38
2018-11-13T16:08:21.774Z,100923.59
2018-11-13T16:10:51.642Z,100923.17
2018-11-13T16:13:20.817Z,100925.37
2018-11-13T16:15:49.783Z,100928.47
2018-11-13T16:18:21.061Z,100939.45
2018-11-13T16:20:49.932Z,100942.08
2018-11-13T16:23:18.785Z,100700.78
2018-11-13T16:25:47.697Z,100939.45
2018-11-13T16:28:17.211Z,100953.94
2018-11-13T16:30:46.223Z,100951.75
2018-11-13T16:33:15.345Z,100957.01
2018-11-13T16:35:44.687Z,100957.89
2018-11-13T16:38:14.396Z,100959.66
2018-11-13T16:40:43.572Z,100958.36
2018-11-13T16:43:12.293Z,100963.18
2018-11-13T16:45:41.172Z,100960.55
2018-11-13T16:48:10.214Z,100967.55
2018-11-13T16:50:42.958Z,100980.72
2018-11-13T16:53:11.870Z,100975.46
2018-11-13T16:55:45.871Z,100975.44
2018-11-13T16:58:15.895Z,100983.33
2018-11-13T17:00:44.855Z,100984.21
2018-11-13T17:03:13.623Z,100983.34
2018-11-13T17:05:42.368Z,100983.31
2018-11-13T17:08:11.932Z,100985.52
2018-11-13T17:10:42.093Z,100994.27
2018-11-13T17:13:10.943Z,100990.36
2018-11-13T17:15:40.149Z,100992.98
2018-11-13T17:18:08.917Z,101001.77
2018-11-13T17:20:37.925Z,100995.20
2018-11-13T17:23:06.880Z,100999.57
2018-11-13T17:25:37.049Z,101000.91
2018-11-13T17:28:06.630Z,101005.70
2018-11-13T17:30:36.332Z,101000.45
2018-11-13T17:33:07.692Z,101003.09
2018-11-13T17:35:38.182Z,101001.79
2018-11-13T17:38:07.322Z,101004.40
2018-11-13T17:40:36.825Z,101003.52
2018-11-13T17:43:06.516Z,101010.09
2018-11-13T17:45:36.463Z,101012.27
2018-11-13T17:48:05.470Z,101014.45
2018-11-13T17:50:37.552Z,101008.77
2018-11-13T17:53:07.480Z,101009.63
2018-11-13T17:55:36.665Z,101020.59
2018-11-13T17:58:07.907Z,101030.20
2018-11-13T18:00:38.484Z,101019.25
2018-11-13T18:03:08.034Z,101023.63
2018-11-13T18:05:37.140Z,101016.61
2018-11-13T18:08:06.545Z,101024.94
2018-11-13T18:10:36.384Z,101023.19
2018-11-13T18:13:05.571Z,101022.75
2018-11-13T18:15:34.366Z,101021.41
2018-11-13T18:18:03.246Z,101027.08
2018-11-13T18:20:33.196Z,101031.91
2018-11-13T18:23:01.949Z,101031.91
2018-11-13T18:25:30.843Z,101025.75
2018-11-13T18:28:00.492Z,101033.22
2018-11-13T18:30:30.261Z,101039.72
2018-11-13T18:32:59.516Z,101039.30
2018-11-13T18:35:29.601Z,101034.91
2018-11-13T18:38:00.730Z,101045.41
2018-11-13T18:40:29.994Z,101051.52
2018-11-13T18:42:59.846Z,101044.95
2018-11-13T18:45:31.609Z,101053.27
2018-11-13T18:48:01.327Z,101054.14
2018-11-13T18:50:31.052Z,101052.81
2018-11-13T18:52:59.789Z,101058.96
2018-11-13T18:55:28.412Z,101052.39
2018-11-13T18:57:57.168Z,101049.78
2018-11-13T19:00:27.577Z,101056.44
2018-11-13T19:02:56.397Z,101062.58
2018-11-13T19:05:26.571Z,101066.55
2018-11-13T19:07:57.115Z,101066.58
2018-11-13T19:10:33.120Z,101063.52
2018-11-13T19:13:02.772Z,101066.61
2018-11-13T19:15:32.928Z,101068.36
2018-11-13T19:18:01.624Z,101070.56
2018-11-13T19:20:30.462Z,101075.39
2018-11-13T19:22:59.082Z,101073.20
2018-11-13T19:25:29.035Z,101074.09
2018-11-13T19:27:57.994Z,101072.33
2018-11-13T19:30:26.714Z,101074.11
2018-11-13T19:32:55.384Z,101079.80
2018-11-13T19:35:24.127Z,101077.17
2018-11-13T19:37:52.545Z,101082.42
2018-11-13T19:40:24.369Z,101084.17
2018-11-13T19:42:53.594Z,101085.51
2018-11-13T19:45:22.476Z,101095.59
2018-11-13T19:47:51.059Z,101092.95
2018-11-13T19:50:22.150Z,101092.08
2018-11-13T19:52:50.870Z,101095.57
2018-11-13T19:55:20.429Z,101106.12
2018-11-13T19:57:49.466Z,101107.43
2018-11-13T20:00:34.816Z,101102.61
2018-11-13T20:03:04.660Z,101102.61
2018-11-13T20:05:33.491Z,101108.77
2018-11-13T20:08:02.192Z,101106.97
2018-11-13T20:10:32.049Z,101106.09
2018-11-13T20:13:02.035Z,101111.33
2018-11-13T20:15:31.397Z,101110.00
2018-11-13T20:18:00.008Z,101109.53
2018-11-13T20:20:29.924Z,101120.91
2018-11-13T20:22:59.494Z,101114.73
2018-11-13T20:25:29.514Z,101118.66
2018-11-13T20:27:58.144Z,101123.03
2018-11-13T20:30:28.556Z,101121.27
2018-11-13T20:32:57.228Z,101128.25
2018-11-13T20:35:25.930Z,101124.66
2018-11-13T20:37:56.021Z,101122.44
2018-11-13T20:40:27.212Z,101126.39
2018-11-13T20:42:57.231Z,101130.30
2018-11-13T20:45:26.020Z,101133.34
2018-11-13T20:47:54.657Z,101134.17
2018-11-13T20:50:25.237Z,101134.59
2018-11-13T20:52:53.962Z,101137.63
2018-11-13T20:55:22.685Z,101141.55
2018-11-13T20:57:51.341Z,101143.28
2018-11-13T21:00:21.818Z,101145.87
2018-11-13T21:02:50.732Z,101146.70
2018-11-13T21:05:19.456Z,101141.02
2018-11-13T21:07:48.187Z,101140.97
2018-11-13T21:10:18.618Z,101145.34
2018-11-13T21:12:47.781Z,101138.77
2018-11-13T21:15:18.593Z,101141.37
2018-11-13T21:17:47.284Z,101140.92
2018-11-13T21:20:17.317Z,101147.02
2018-11-13T21:22:46.092Z,101143.07
2018-11-13T21:25:16.249Z,101132.53
2018-11-13T21:27:44.937Z,101143.88
2018-11-13T21:30:17.112Z,101149.97
2018-11-13T21:32:46.700Z,101150.84
2018-11-13T21:35:15.652Z,101156.94
2018-11-13T21:37:45.569Z,101162.14
2018-11-13T21:40:15.343Z,101161.25
2018-11-13T21:42:45.069Z,101166.05
2018-11-13T21:45:14.213Z,101158.14
2018-11-13T21:47:43.319Z,101162.09
2018-11-13T21:50:14.006Z,101159.88
2018-11-13T21:52:42.892Z,101163.39
2018-11-13T21:55:15.149Z,101166.41
2018-11-13T21:57:43.840Z,101159.41
2018-11-13T22:00:20.454Z,101165.98
2018-11-13T22:03:05.320Z,101162.44
2018-11-13T22:05:34.823Z,101170.30
2018-11-13T22:08:03.477Z,101163.30
2018-11-13T22:10:32.068Z,101169.84
2018-11-13T22:13:00.608Z,101162.81
2018-11-13T22:15:29.851Z,101167.16
2018-11-13T22:17:58.448Z,101164.94
2018-11-13T22:20:27.017Z,101170.63
2018-11-13T22:22:57.003Z,101170.61
2018-11-13T22:25:26.341Z,101171.47
2018-11-13T22:27:56.331Z,101170.13
2018-11-13T22:30:26.113Z,101175.38
2018-11-13T22:32:54.777Z,101178.00
2018-11-13T22:35:23.750Z,101183.22
2018-11-13T22:37:52.382Z,101184.53
2018-11-13T22:40:22.604Z,101184.98
2018-11-13T22:42:51.445Z,101188.05
2018-11-13T22:45:21.348Z,101184.14
2018-11-13T22:47:50.088Z,101185.87
2018-11-13T22:50:20.181Z,101183.25
2018-11-13T22:52:49.162Z,101185.84
2018-11-13T22:55:18.264Z,101190.62
2018-11-13T22:57:47.704Z,101194.53
2018-11-13T23:00:23.662Z,101196.22
2018-11-13T23:02:53.406Z,101193.09
2018-11-13T23:05:22.091Z,101192.23
2018-11-13T23:07:50.818Z,101189.59
2018-11-13T23:10:19.748Z,101196.14
2018-11-13T23:12:48.457Z,101195.25
2018-11-13T23:15:19.605Z,101197.81
2018-11-13T23:17:48.226Z,101197.40
2018-11-13T23:20:18.224Z,101199.57
2018-11-13T23:22:46.776Z,101197.88
2018-11-13T23:25:16.643Z,101191.76
2018-11-13T23:27:46.202Z,101202.30
2018-11-13T23:30:22.366Z,101204.62
2018-11-13T23:32:51.180Z,101208.61
2018-11-13T23:35:20.045Z,101204.30
2018-11-13T23:37:49.989Z,101203.05
2018-11-13T23:40:20.008Z,101203.49
2018-11-13T23:42:49.050Z,101207.45
2018-11-13T23:45:18.797Z,101208.31
2018-11-13T23:47:47.997Z,101215.71
2018-11-13T23:50:16.679Z,101215.30
2018-11-13T23:52:46.019Z,101210.08
2018-11-13T23:55:15.177Z,101214.88
2018-11-13T23:57:44.373Z,101211.83
